createdAt,value
2018-09-01T00:01:28.226Z,64.13
2018-09-01T00:03:57.824Z,63.90
2018-09-01T00:06:27.406Z,64.49
2018-09-01T00:08:57.049Z,64.60
2018-09-01T00:11:26.605Z,64.36
2018-09-01T00:13:56.165Z,64.03
2018-09-01T00:16:26.695Z,64.41
2018-09-01T00:18:56.220Z,63.72
2018-09-01T00:21:25.969Z,64.24
2018-09-01T00:23:55.547Z,63.48
2018-09-01T00:26:25.140Z,64.32
2018-09-01T00:28:54.709Z,63.93
2018-09-01T00:31:24.980Z,63.96
2018-09-01T00:33:54.514Z,64.55
2018-09-01T00:36:24.189Z,64.11
2018-09-01T00:38:59.025Z,64.39
2018-09-01T00:41:28.597Z,64.32
2018-09-01T00:43:58.181Z,65.04
2018-09-01T00:46:27.993Z,65.24
2018-09-01T00:48:57.575Z,65.72
2018-09-01T00:51:27.220Z,65.46
2018-09-01T00:53:56.773Z,65.45
2018-09-01T00:58:54.808Z,65.48
2018-09-01T01:01:24.755Z,66.19
2018-09-01T01:03:54.466Z,66.33
2018-09-01T01:06:24.089Z,65.95
2018-09-01T01:08:53.648Z,66.20
2018-09-01T01:11:23.221Z,66.18
2018-09-01T01:13:52.782Z,66.44
2018-09-01T01:16:22.366Z,66.19
2018-09-01T01:18:52.015Z,65.92
2018-09-01T01:21:21.619Z,66.51
2018-09-01T01:23:51.375Z,65.97
2018-09-01T01:26:20.945Z,66.54
2018-09-01T01:28:50.644Z,67.08
2018-09-01T01:31:20.294Z,66.44
2018-09-01T01:33:49.967Z,67.04
2018-09-01T01:36:19.625Z,67.12
2018-09-01T01:38:49.895Z,67.27
2018-09-01T01:41:19.537Z,67.04
2018-09-01T01:43:49.412Z,67.21
2018-09-01T01:46:19.008Z,67.21
2018-09-01T01:48:48.664Z,68.24
2018-09-01T01:51:18.425Z,68.50
2018-09-01T01:53:48.032Z,69.43
2018-09-01T01:56:17.715Z,69.95
2018-09-01T01:58:47.356Z,70.03
2018-09-01T02:01:16.986Z,70.67
2018-09-01T02:03:46.615Z,70.28
2018-09-01T02:06:16.300Z,70.99
2018-09-01T02:08:45.884Z,71.36
2018-09-01T02:11:15.540Z,71.58
2018-09-01T02:13:45.306Z,72.31
2018-09-01T02:16:14.918Z,71.84
2018-09-01T02:18:44.544Z,72.53
2018-09-01T02:21:14.277Z,72.94
2018-09-01T02:23:43.914Z,72.96
2018-09-01T02:26:13.491Z,73.41
2018-09-01T02:28:43.168Z,73.46
2018-09-01T02:31:12.866Z,74.20
2018-09-01T02:33:42.487Z,73.74
2018-09-01T02:36:12.103Z,74.13
2018-09-01T02:38:41.678Z,74.21
2018-09-01T02:41:11.352Z,75.26
2018-09-01T02:43:41.151Z,75.19
2018-09-01T02:46:10.774Z,75.17
2018-09-01T02:48:40.394Z,75.80
2018-09-01T02:51:10.078Z,75.54
2018-09-01T02:53:39.639Z,75.90
2018-09-01T02:56:09.454Z,76.20
2018-09-01T02:58:39.210Z,76.23
2018-09-01T03:01:13.995Z,76.49
2018-09-01T03:03:43.618Z,76.92
2018-09-01T03:06:13.193Z,77.08
2018-09-01T03:08:42.867Z,78.02
2018-09-01T03:11:12.537Z,77.91
2018-09-01T03:13:42.226Z,77.96
2018-09-01T03:16:11.879Z,78.23
2018-09-01T03:18:41.759Z,78.34
2018-09-01T03:21:11.357Z,78.60
2018-09-01T03:23:41.003Z,79.36
2018-09-01T03:26:10.611Z,78.79
2018-09-01T03:28:40.205Z,78.93
2018-09-01T03:31:09.869Z,79.90
2018-09-01T03:33:39.514Z,79.78
2018-09-01T03:36:09.116Z,79.71
2018-09-01T03:38:38.754Z,79.92
2018-09-01T03:41:08.354Z,80.43
2018-09-01T03:43:37.930Z,80.26
2018-09-01T03:46:07.732Z,80.38
2018-09-01T03:48:37.445Z,81.05
2018-09-01T03:51:07.409Z,81.30
2018-09-01T03:53:37.029Z,81.36
2018-09-01T03:56:07.098Z,81.72
2018-09-01T03:58:36.786Z,81.79
2018-09-01T04:01:06.483Z,81.77
2018-09-01T04:03:36.195Z,81.83
2018-09-01T04:06:06.207Z,82.12
2018-09-01T04:08:35.859Z,81.85
2018-09-01T04:11:05.504Z,82.48
2018-09-01T04:13:35.097Z,82.20
2018-09-01T04:16:04.742Z,82.58
2018-09-01T04:18:34.363Z,82.71
2018-09-01T04:21:03.963Z,83.01
2018-09-01T04:23:33.567Z,82.90
2018-09-01T04:26:03.224Z,82.86
2018-09-01T04:28:32.902Z,83.08
2018-09-01T04:31:02.596Z,83.55
2018-09-01T04:33:32.522Z,83.90
2018-09-01T04:36:02.197Z,83.05
2018-09-01T04:38:31.909Z,83.49
2018-09-01T04:41:01.783Z,83.17
2018-09-01T04:43:31.475Z,82.71
2018-09-01T04:46:01.119Z,82.80
2018-09-01T04:48:30.987Z,82.69
2018-09-01T04:51:00.564Z,82.62
2018-09-01T04:53:30.206Z,82.38
2018-09-01T04:55:59.923Z,82.05
2018-09-01T04:58:29.515Z,81.50
2018-09-01T05:00:59.219Z,79.71
2018-09-01T05:03:28.739Z,77.95
2018-09-01T05:05:58.352Z,76.29
2018-09-01T05:08:27.984Z,74.95
2018-09-01T05:10:57.747Z,72.93
2018-09-01T05:13:27.345Z,70.47
2018-09-01T05:15:56.958Z,68.59
2018-09-01T05:18:26.680Z,66.64
2018-09-01T05:20:56.302Z,65.15
2018-09-01T05:23:25.893Z,63.64
2018-09-01T05:25:55.759Z,61.57
2018-09-01T05:28:25.390Z,59.65
2018-09-01T05:30:55.015Z,58.29
2018-09-01T05:33:24.666Z,56.76
2018-09-01T05:35:54.344Z,55.05
2018-09-01T05:38:23.992Z,53.65
2018-09-01T05:40:53.581Z,52.44
2018-09-01T05:43:23.186Z,50.75
2018-09-01T05:45:52.918Z,48.42
2018-09-01T05:48:22.905Z,46.64
2018-09-01T05:50:52.532Z,46.41
2018-09-01T05:53:22.241Z,45.01
2018-09-01T05:55:51.847Z,44.11
2018-09-01T05:58:21.463Z,43.70
2018-09-01T06:00:51.703Z,44.22
2018-09-01T06:03:21.504Z,43.57
2018-09-01T06:05:51.092Z,42.38
2018-09-01T06:08:20.648Z,40.89
2018-09-01T06:10:50.258Z,39.51
2018-09-01T06:13:19.820Z,39.28
2018-09-01T06:15:49.415Z,39.19
2018-09-01T06:18:19.202Z,38.36
2018-09-01T06:20:48.805Z,37.31
2018-09-01T06:23:18.419Z,36.69
2018-09-01T06:25:48.031Z,37.12
2018-09-01T06:29:20.791Z,36.69
2018-09-01T06:32:03.134Z,36.42
2018-09-01T06:34:32.704Z,36.54
2018-09-01T06:37:02.306Z,36.49
2018-09-01T06:39:31.943Z,36.38
2018-09-01T06:42:01.571Z,35.85
2018-09-01T06:44:31.177Z,35.79
2018-09-01T06:47:00.768Z,35.13
2018-09-01T06:49:30.394Z,34.15
2018-09-01T06:52:00.251Z,34.01
2018-09-01T06:54:29.914Z,33.15
2018-09-01T06:56:59.491Z,33.49
2018-09-01T06:59:29.085Z,33.41
2018-09-01T07:01:58.666Z,33.09
2018-09-01T07:04:28.257Z,32.46
2018-09-01T07:06:57.846Z,32.44
2018-09-01T07:09:27.459Z,33.01
2018-09-01T07:11:57.054Z,33.29
2018-09-01T07:14:26.656Z,33.10
2018-09-01T07:16:56.290Z,33.14
2018-09-01T07:19:25.874Z,31.70
2018-09-01T07:21:55.524Z,31.44
2018-09-01T07:24:25.294Z,31.15
2018-09-01T07:26:55.011Z,30.58
2018-09-01T07:29:24.714Z,30.40
2018-09-01T07:31:54.456Z,30.21
2018-09-01T07:34:24.574Z,29.74
2018-09-01T07:36:54.182Z,28.85
2018-09-01T07:39:23.894Z,28.81
2018-09-01T07:41:53.486Z,28.36
2018-09-01T07:44:23.079Z,28.49
2018-09-01T07:46:52.771Z,27.57
2018-09-01T07:49:22.455Z,28.05
2018-09-01T07:51:52.131Z,27.18
2018-09-01T07:54:21.942Z,27.40
2018-09-01T07:56:51.539Z,26.96
2018-09-01T07:59:21.141Z,26.32
2018-09-01T08:01:50.773Z,25.50
2018-09-01T08:04:21.285Z,26.16
2018-09-01T08:06:50.894Z,25.50
2018-09-01T08:09:20.610Z,25.62
2018-09-01T08:11:50.214Z,24.87
2018-09-01T08:14:19.899Z,24.76
2018-09-01T08:16:49.450Z,24.97
2018-09-01T08:19:19.051Z,24.45
2018-09-01T08:21:48.717Z,24.85
2018-09-01T08:24:18.498Z,24.16
2018-09-01T08:26:48.142Z,24.19
2018-09-01T08:29:17.821Z,24.70
2018-09-01T08:31:47.458Z,24.75
2018-09-01T08:34:17.090Z,24.66
2018-09-01T08:36:46.710Z,24.85
2018-09-01T08:39:16.351Z,23.79
2018-09-01T08:41:45.953Z,23.44
2018-09-01T08:44:15.561Z,22.94
2018-09-01T08:46:45.211Z,23.08
2018-09-01T08:49:14.947Z,23.08
2018-09-01T08:51:44.570Z,23.50
2018-09-01T08:54:14.240Z,23.53
2018-09-01T08:56:43.876Z,23.73
2018-09-01T08:59:13.943Z,23.63
2018-09-01T09:01:43.631Z,23.01
2018-09-01T09:04:13.255Z,22.68
2018-09-01T09:06:42.870Z,23.10
2018-09-01T09:09:12.468Z,23.10
2018-09-01T09:11:42.105Z,23.02
2018-09-01T09:14:12.153Z,23.07
2018-09-01T09:16:41.879Z,22.50
2018-09-01T09:19:11.441Z,22.62
2018-09-01T09:21:41.059Z,22.83
2018-09-01T09:24:10.798Z,22.82
2018-09-01T09:26:40.434Z,22.79
2018-09-01T09:29:10.207Z,22.79
2018-09-01T09:31:39.834Z,23.59
2018-09-01T09:34:09.430Z,23.13
2018-09-01T09:36:39.037Z,21.96
2018-09-01T09:39:10.809Z,22.29
2018-09-01T09:41:41.504Z,21.13
2018-09-01T09:44:11.120Z,21.24
2018-09-01T09:46:40.743Z,21.64
2018-09-01T09:49:10.446Z,21.45
2018-09-01T09:51:40.328Z,21.59
2018-09-01T09:54:09.917Z,21.20
2018-09-01T09:56:39.584Z,21.09
2018-09-01T09:59:09.524Z,21.53
2018-09-01T10:01:40.019Z,20.98
2018-09-01T10:04:11.069Z,22.28
2018-09-01T10:06:40.735Z,23.36
2018-09-01T10:09:15.754Z,23.30
2018-09-01T10:11:45.371Z,24.42
2018-09-01T10:14:15.077Z,25.68
2018-09-01T10:16:44.919Z,25.88
2018-09-01T10:19:14.554Z,26.22
2018-09-01T10:21:44.222Z,25.85
2018-09-01T10:24:14.076Z,25.53
2018-09-01T10:26:43.759Z,25.02
2018-09-01T10:29:13.458Z,25.37
2018-09-01T10:31:43.403Z,24.78
2018-09-01T10:34:13.139Z,25.13
2018-09-01T10:36:42.993Z,24.26
2018-09-01T10:39:12.756Z,24.56
2018-09-01T10:41:42.484Z,25.63
2018-09-01T10:44:12.230Z,27.23
2018-09-01T10:46:41.989Z,28.27
2018-09-01T10:49:11.946Z,28.53
2018-09-01T10:51:41.595Z,29.72
2018-09-01T10:54:11.221Z,28.41
2018-09-01T10:56:40.818Z,28.01
2018-09-01T10:59:10.608Z,28.48
2018-09-01T11:01:40.131Z,28.16
2018-09-01T11:04:09.776Z,28.93
2018-09-01T11:06:39.481Z,29.33
2018-09-01T11:09:11.019Z,30.47
2018-09-01T11:11:40.619Z,29.88
2018-09-01T11:14:10.764Z,31.65
2018-09-01T11:16:40.579Z,32.22
2018-09-01T11:19:10.135Z,32.72
2018-09-01T11:21:39.860Z,32.79
2018-09-01T11:24:09.676Z,34.08
2018-09-01T11:26:39.302Z,33.82
2018-09-01T11:29:08.999Z,34.23
2018-09-01T11:31:38.616Z,35.39
2018-09-01T11:34:08.378Z,35.34
2018-09-01T11:36:38.138Z,35.80
2018-09-01T11:39:10.986Z,36.67
2018-09-01T11:41:40.715Z,37.09
2018-09-01T11:44:10.447Z,37.44
2018-09-01T11:46:40.591Z,37.35
2018-09-01T11:49:10.266Z,35.98
2018-09-01T11:51:39.889Z,36.04
2018-09-01T11:54:09.576Z,36.37
2018-09-01T11:56:39.221Z,36.01
2018-09-01T11:59:08.985Z,36.25
2018-09-01T12:01:38.726Z,36.66
2018-09-01T12:04:08.339Z,36.79
2018-09-01T12:06:37.966Z,38.09
2018-09-01T12:09:08.822Z,37.79
2018-09-01T12:11:38.374Z,37.79
2018-09-01T12:14:08.067Z,37.69
2018-09-01T12:16:37.954Z,38.18
2018-09-01T12:19:07.569Z,37.85
2018-09-01T12:21:37.271Z,37.80
2018-09-01T12:24:06.955Z,37.39
2018-09-01T12:26:36.523Z,37.39
2018-09-01T12:29:06.266Z,37.51
2018-09-01T12:31:35.859Z,37.03
2018-09-01T12:34:05.442Z,37.36
2018-09-01T12:36:35.033Z,38.12
2018-09-01T12:39:05.826Z,38.57
2018-09-01T12:41:36.122Z,38.52
2018-09-01T12:44:05.722Z,38.19
2018-09-01T12:46:35.423Z,38.35
2018-09-01T12:49:05.049Z,38.21
2018-09-01T12:51:34.642Z,38.19
2018-09-01T12:54:04.522Z,37.69
2018-09-01T12:56:34.213Z,38.39
2018-09-01T12:59:04.523Z,38.21
2018-09-01T13:01:34.282Z,37.97
2018-09-01T13:04:04.004Z,38.31
2018-09-01T13:06:33.702Z,38.31
2018-09-01T13:09:03.791Z,38.30
2018-09-01T13:11:33.511Z,37.31
2018-09-01T13:14:03.179Z,37.42
2018-09-01T13:16:32.945Z,38.25
2018-09-01T13:19:02.655Z,37.75
2018-09-01T13:21:32.321Z,37.59
2018-09-01T13:24:01.930Z,38.02
2018-09-01T13:26:31.578Z,39.04
2018-09-01T13:29:01.262Z,39.31
2018-09-01T13:31:31.146Z,38.85
2018-09-01T13:34:01.188Z,39.79
2018-09-01T13:36:30.793Z,38.77
2018-09-01T13:39:00.701Z,38.60
2018-09-01T13:41:30.306Z,38.57
2018-09-01T13:44:00.086Z,39.42
2018-09-01T13:46:29.823Z,39.65
2018-09-01T13:48:59.418Z,38.97
2018-09-01T13:51:29.086Z,39.11
2018-09-01T13:53:58.940Z,38.58
2018-09-01T13:56:28.615Z,38.33
2018-09-01T13:58:58.242Z,39.00
2018-09-01T14:01:27.911Z,38.96
2018-09-01T14:03:57.546Z,37.93
2018-09-01T14:06:27.122Z,37.78
2018-09-01T14:08:56.795Z,38.30
2018-09-01T14:11:26.394Z,38.58
2018-09-01T14:13:56.222Z,37.56
2018-09-01T14:16:26.038Z,38.05
2018-09-01T14:18:55.643Z,37.44
2018-09-01T14:21:25.261Z,37.79
2018-09-01T14:23:54.893Z,38.40
2018-09-01T14:26:24.499Z,38.67
2018-09-01T14:28:54.267Z,38.70
2018-09-01T14:31:24.020Z,38.50
2018-09-01T14:33:53.777Z,39.48
2018-09-01T14:36:23.611Z,38.53
2018-09-01T14:38:53.327Z,39.43
2018-09-01T14:41:22.965Z,38.74
2018-09-01T14:43:52.664Z,39.53
2018-09-01T14:46:22.463Z,39.03
2018-09-01T14:48:52.104Z,39.50
2018-09-01T14:51:21.723Z,39.25
2018-09-01T14:53:51.326Z,38.03
2018-09-01T14:56:21.028Z,37.46
2018-09-01T14:58:50.666Z,37.17
2018-09-01T15:01:20.491Z,38.40
2018-09-01T15:03:50.140Z,37.66
2018-09-01T15:06:19.922Z,37.80
2018-09-01T15:08:49.535Z,38.55
2018-09-01T15:11:19.123Z,38.02
2018-09-01T15:13:48.796Z,38.38
2018-09-01T15:16:18.440Z,38.15
2018-09-01T15:18:48.122Z,39.32
2018-09-01T15:21:17.751Z,39.31
2018-09-01T15:23:47.347Z,38.73
2018-09-01T15:26:16.979Z,39.27
2018-09-01T15:28:46.625Z,39.75
2018-09-01T15:31:16.271Z,39.28
2018-09-01T15:33:46.003Z,39.68
2018-09-01T15:36:15.657Z,39.56
2018-09-01T15:38:45.320Z,39.98
2018-09-01T15:41:14.934Z,40.54
2018-09-01T15:43:44.720Z,40.26
2018-09-01T15:46:14.567Z,41.07
2018-09-01T15:48:44.141Z,41.22
2018-09-01T15:51:13.740Z,41.22
2018-09-01T15:53:43.841Z,41.01
2018-09-01T15:56:13.617Z,41.28
2018-09-01T15:58:43.129Z,40.71
2018-09-01T16:01:12.858Z,41.49
2018-09-01T16:03:42.530Z,41.92
2018-09-01T16:06:12.243Z,42.14
2018-09-01T16:08:42.034Z,42.32
2018-09-01T16:11:11.633Z,42.77
2018-09-01T16:13:41.316Z,42.33
2018-09-01T16:16:11.051Z,42.71
2018-09-01T16:18:40.674Z,43.13
2018-09-01T16:21:10.383Z,43.56
2018-09-01T16:23:40.016Z,43.40
2018-09-01T16:26:09.814Z,43.53
2018-09-01T16:28:39.426Z,44.57
2018-09-01T16:31:09.195Z,44.62
2018-09-01T16:33:38.775Z,44.13
2018-09-01T16:36:08.445Z,43.43
2018-09-01T16:38:39.827Z,44.02
2018-09-01T16:41:09.434Z,44.07
2018-09-01T16:43:39.059Z,43.86
2018-09-01T16:46:08.647Z,44.11
2018-09-01T16:48:38.415Z,44.95
2018-09-01T16:51:08.069Z,45.31
2018-09-01T16:53:37.719Z,44.95
2018-09-01T16:56:07.775Z,45.79
2018-09-01T16:58:37.369Z,45.99
2018-09-01T17:01:07.118Z,45.79
2018-09-01T17:03:36.743Z,46.20
2018-09-01T17:06:06.454Z,46.47
2018-09-01T17:08:36.022Z,46.12
2018-09-01T17:11:05.670Z,46.49
2018-09-01T17:13:35.278Z,46.64
2018-09-01T17:16:05.193Z,47.41
2018-09-01T17:18:34.792Z,47.10
2018-09-01T17:21:04.410Z,47.72
2018-09-01T17:23:34.147Z,47.79
2018-09-01T17:26:03.705Z,47.52
2018-09-01T17:28:33.404Z,48.05
2018-09-01T17:31:03.151Z,48.86
2018-09-01T17:33:33.081Z,48.28
2018-09-01T17:36:02.714Z,49.37
2018-09-01T17:38:32.505Z,49.46
2018-09-01T17:41:02.133Z,49.44
2018-09-01T17:43:31.753Z,49.88
2018-09-01T17:46:01.441Z,49.50
2018-09-01T17:48:31.042Z,50.21
2018-09-01T17:51:00.682Z,50.31
2018-09-01T17:53:30.298Z,50.35
2018-09-01T17:55:59.969Z,50.47
2018-09-01T17:58:29.626Z,50.67
2018-09-01T18:00:59.275Z,50.22
2018-09-01T18:03:28.883Z,50.88
2018-09-01T18:05:58.524Z,51.45
2018-09-01T18:08:28.190Z,51.21
2018-09-01T18:10:57.828Z,51.37
2018-09-01T18:13:27.454Z,51.67
2018-09-01T18:15:57.079Z,51.61
2018-09-01T18:18:26.724Z,52.15
2018-09-01T18:20:56.346Z,52.11
2018-09-01T18:23:25.998Z,52.27
2018-09-01T18:25:55.590Z,51.64
2018-09-01T18:28:25.256Z,51.76
2018-09-01T18:30:54.907Z,51.71
2018-09-01T18:33:24.515Z,51.83
2018-09-01T18:35:54.160Z,52.17
2018-09-01T18:38:23.899Z,52.35
2018-09-01T18:40:53.631Z,51.77
2018-09-01T18:43:23.247Z,51.79
2018-09-01T18:45:52.995Z,52.38
2018-09-01T18:48:22.722Z,52.08
2018-09-01T18:50:52.323Z,52.47
2018-09-01T18:53:22.099Z,52.00
2018-09-01T18:55:51.670Z,52.28
2018-09-01T18:58:21.287Z,52.95
2018-09-01T19:00:51.104Z,53.12
2018-09-01T19:03:20.777Z,52.84
2018-09-01T19:05:50.504Z,52.30
2018-09-01T19:08:20.245Z,53.09
2018-09-01T19:10:49.943Z,53.21
2018-09-01T19:13:19.636Z,53.14
2018-09-01T19:15:49.266Z,53.27
2018-09-01T19:18:18.874Z,53.42
2018-09-01T19:20:48.530Z,52.91
2018-09-01T19:23:18.172Z,53.25
2018-09-01T19:25:47.778Z,53.43
2018-09-01T19:28:17.561Z,53.55
2018-09-01T19:30:47.432Z,53.27
2018-09-01T19:33:17.011Z,53.04
2018-09-01T19:35:46.644Z,53.49
2018-09-01T19:38:16.556Z,53.57
2018-09-01T19:40:46.829Z,52.85
2018-09-01T19:43:16.510Z,53.47
2018-09-01T19:45:46.219Z,53.43
2018-09-01T19:48:16.301Z,53.55
2018-09-01T19:50:46.044Z,53.32
2018-09-01T19:53:15.743Z,53.76
2018-09-01T19:55:45.367Z,53.90
2018-09-01T19:58:15.076Z,54.38
2018-09-01T20:00:44.811Z,53.93
2018-09-01T20:03:14.496Z,54.51
2018-09-01T20:05:44.115Z,54.69
2018-09-01T20:08:13.816Z,54.49
2018-09-01T20:10:43.412Z,54.07
2018-09-01T20:13:13.019Z,54.60
2018-09-01T20:15:42.702Z,54.78
2018-09-01T20:18:12.338Z,54.36
2018-09-01T20:20:41.970Z,54.86
2018-09-01T20:23:11.698Z,55.48
2018-09-01T20:25:41.367Z,55.46
2018-09-01T20:28:10.976Z,54.97
2018-09-01T20:30:40.583Z,54.95
2018-09-01T20:33:10.191Z,55.29
2018-09-01T20:35:45.114Z,55.39
2018-09-01T20:38:14.718Z,56.00
2018-09-01T20:40:44.371Z,55.30
2018-09-01T20:43:14.305Z,55.58
2018-09-01T20:45:43.919Z,55.58
2018-09-01T20:48:13.568Z,55.71
2018-09-01T20:50:43.187Z,56.41
2018-09-01T20:53:13.043Z,55.74
2018-09-01T20:55:42.638Z,55.69
2018-09-01T20:58:12.655Z,56.50
2018-09-01T21:00:42.300Z,56.08
2018-09-01T21:03:11.962Z,56.43
2018-09-01T21:05:41.555Z,56.52
2018-09-01T21:08:11.122Z,56.78
2018-09-01T21:10:40.757Z,56.46
2018-09-01T21:13:10.382Z,56.22
2018-09-01T21:15:40.069Z,56.75
2018-09-01T21:18:09.755Z,56.24
2018-09-01T21:20:39.354Z,56.54
2018-09-01T21:23:08.950Z,56.53
2018-09-01T21:25:38.874Z,56.52
2018-09-01T21:28:11.396Z,57.06
2018-09-01T21:30:41.258Z,57.39
2018-09-01T21:33:10.995Z,57.50
2018-09-01T21:35:43.611Z,57.13
2018-09-01T21:38:13.230Z,57.11
2018-09-01T21:40:42.901Z,57.23
2018-09-01T21:43:12.677Z,57.39
2018-09-01T21:45:42.323Z,57.64
2018-09-01T21:48:12.099Z,57.13
2018-09-01T21:50:41.956Z,56.95
2018-09-01T21:53:11.609Z,57.44
2018-09-01T21:55:41.262Z,57.08
2018-09-01T21:58:10.869Z,57.90
2018-09-01T22:00:44.727Z,57.93
2018-09-01T22:03:14.303Z,58.44
2018-09-01T22:05:45.299Z,58.54
2018-09-01T22:08:15.131Z,58.84
2018-09-01T22:10:44.746Z,58.94
2018-09-01T22:13:14.391Z,58.62
2018-09-01T22:15:43.990Z,59.38
2018-09-01T22:18:13.627Z,59.00
2018-09-01T22:20:43.215Z,59.38
2018-09-01T22:23:12.810Z,59.09
2018-09-01T22:25:42.425Z,59.08
2018-09-01T22:28:12.441Z,58.98
2018-09-01T22:30:42.016Z,59.18
2018-09-01T22:33:11.635Z,59.24
2018-09-01T22:35:41.308Z,58.92
2018-09-01T22:38:10.894Z,59.47
2018-09-01T22:40:40.494Z,59.84
2018-09-01T22:43:10.165Z,59.34
2018-09-01T22:45:39.743Z,59.66
2018-09-01T22:48:09.333Z,59.60
2018-09-01T22:50:39.039Z,60.27
2018-09-01T22:53:08.623Z,60.88
2018-09-01T22:55:38.345Z,61.25
2018-09-01T22:58:07.961Z,61.17
2018-09-01T23:00:37.602Z,61.85
2018-09-01T23:03:07.275Z,62.38
2018-09-01T23:05:37.027Z,61.93
2018-09-01T23:08:06.651Z,62.86
2018-09-01T23:10:36.301Z,62.44
2018-09-01T23:13:06.266Z,63.40
2018-09-01T23:15:35.947Z,63.26
2018-09-01T23:18:05.583Z,64.00
2018-09-01T23:20:35.218Z,65.07
2018-09-01T23:23:05.005Z,64.97
2018-09-01T23:25:34.647Z,65.67
2018-09-01T23:28:04.290Z,66.42
2018-09-01T23:30:33.951Z,67.03
2018-09-01T23:33:03.648Z,67.01
2018-09-01T23:35:33.302Z,67.80
2018-09-01T23:38:03.033Z,68.45
2018-09-01T23:40:32.682Z,68.33
2018-09-01T23:43:02.488Z,69.05
2018-09-01T23:45:32.063Z,69.53
2018-09-01T23:48:01.676Z,69.86
2018-09-01T23:50:31.471Z,70.85
2018-09-01T23:53:01.099Z,70.93
2018-09-01T23:55:30.802Z,71.60
2018-09-01T23:58:00.431Z,71.65
